Time;durP1;ratioP1;P1;durP2;ratioP2;P2;SDS_P1;SDS_P2;PMS_P1;PMS_P2;Temp;Humidity;BMP_temperature;BMP_pressure;BME280_temperature;BME280_humidity;BME280_pressure;Samples;Min_cycle;Max_cycle;Signal;HPM_P1;HPM_P2
2022/01/28 00:02:37;;;;;;;;;;;;;;;;;;5056728;28;20012;-86
2022/01/28 00:04:57;;;;;;;;;;;;;;;;;;5057185;28;19958;-85
2022/01/28 00:07:22;;;;;;;;;;;;;;;;;;5060477;28;19924;-85
2022/01/28 00:09:47;;;;;;;;;;;;;;;;;;5075158;28;20027;-86
2022/01/28 00:12:13;;;;;;;;;;;;;;;;;;5074907;28;19934;-86
2022/01/28 00:38:50;;;;;;;;;;;;;;;;;;5075722;28;19916;-86
2022/01/28 00:41:15;;;;;;;;;;;;;;;;;;5075629;28;19904;-86
2022/01/28 00:43:40;;;;;;;;;;;;;;;;;;5075618;28;19914;-86
2022/01/28 00:46:05;;;;;;;;;;;;;;;;;;5074327;28;19911;-86
2022/01/28 00:48:30;;;;;;;;;;;;;;;;;;5074488;28;19904;-86
2022/01/28 00:50:56;;;;;;;;;;;;;;;;;;5074259;28;20255;-85
2022/01/28 00:53:21;;;;;;;;;;;;;;;;;;5074668;28;19908;-85
2022/01/28 00:55:46;;;;;;;;;;;;;;;;;;5074171;28;19908;-86
2022/01/28 00:58:11;;;;;;;;;;;;;;;;;;5072437;28;19954;-86
2022/01/28 01:00:36;;;;;;;;;;;;;;;;;;5072778;28;19977;-86
2022/01/28 01:03:01;;;;;;;;;;;;;;;;;;5072951;28;20333;-86
2022/01/28 01:05:26;;;;;;;;;;;;;;;;;;5072692;28;19915;-86
2022/01/28 01:07:51;;;;;;;;;;;;;;;;;;5072362;28;19905;-86
2022/01/28 01:10:16;;;;;;;;;;;;;;;;;;5072429;28;19904;-86
2022/01/28 01:12:46;;;;;;;;;;;;;;;;;;5072255;28;19908;-86
2022/01/28 01:15:13;;;;;;;;;;;;;;;;;;5072118;28;19987;-86
2022/01/28 01:17:45;;;;;;;;;;;;;;;;;;5072906;28;19908;-86
2022/01/28 01:20:20;;;;;;;;;;;;;;;;;;5072612;28;19957;-86
2022/01/28 01:22:53;;;;;;;;;;;;;;;;;;5072522;28;20046;-85
2022/01/28 01:25:25;;;;;;;;;;;;;;;;;;5072386;28;19908;-86
2022/01/28 01:27:54;;;;;;;;;;;;;;;;;;5073649;28;19904;-86
2022/01/28 01:30:19;;;;;;;;;;;;;;;;;;5073540;28;19948;-86
2022/01/28 01:32:44;;;;;;;;;;;;;;;;;;5073381;28;19970;-86
2022/01/28 01:35:23;;;;;;;;;;;;;;;;;;5090982;28;19974;-85
2022/01/28 01:37:49;;;;;;;;;;;;;;;;;;5091069;28;19912;-85
2022/01/28 01:40:15;;;;;;;;;;;;;;;;;;5090956;28;20050;-85
2022/01/28 01:42:55;;;;;;;;;;;;;;;;;;5089660;28;20276;-85
2022/01/28 01:53:25;;;;;;;;;;;;;;;;;;5090734;28;20512;-85
2022/01/28 01:55:50;;;;;;;;;;;;;;;;;;5089437;28;20347;-85
2022/01/28 01:58:15;;;;;;;;;;;;;;;;;;5089188;28;19909;-85
2022/01/28 02:00:40;;;;;;;;;;;;;;;;;;5089384;28;19909;-85
2022/01/28 02:03:05;;;;;;;;;;;;;;;;;;5090562;28;20361;-85
2022/01/28 02:05:30;;;;;;;;;;;;;;;;;;5089196;28;19995;-85
2022/01/28 02:07:56;;;;;;;;;;;;;;;;;;5090321;28;19912;-83
2022/01/28 02:10:21;;;;;;;;;;;;;;;;;;5088712;28;19909;-85
2022/01/28 02:12:46;;;;;;;;;;;;;;;;;;5089095;28;19923;-85
2022/01/28 02:15:11;;;;;;;;;;;;;;;;;;5089137;28;19912;-85
2022/01/28 02:17:36;;;;;;;;;;;;;;;;;;5088997;28;20371;-86
2022/01/28 02:20:01;;;;;;;;;;;;;;;;;;5089962;28;19915;-85
2022/01/28 02:22:26;;;;;;;;;;;;;;;;;;5090171;28;19915;-85
2022/01/28 02:24:51;;;;;;;;;;;;;;;;;;5081259;28;19913;-85
2022/01/28 02:27:20;;;;;;;;;;;;;;;;;;5076654;28;19913;-86
2022/01/28 02:29:46;;;;;;;;;;;;;;;;;;5069786;28;20261;-85
2022/01/28 02:32:11;;;;;;;;;;;;;;;;;;5071373;28;19925;-85
2022/01/28 02:34:38;;;;;;;;;;;;;;;;;;5088512;28;19962;-86
2022/01/28 02:37:03;;;;;;;;;;;;;;;;;;5088435;28;19908;-85
2022/01/28 02:39:29;;;;;;;;;;;;;;;;;;5089667;28;19908;-85
2022/01/28 02:42:01;;;;;;;;;;;;;;;;;;5089668;28;19909;-85
2022/01/28 02:47:35;;;;;;;;;;;;;;;;;;5075641;28;20375;-85
2022/01/28 02:50:02;;;;;;;;;;;;;;;;;;5075410;28;19915;-85
2022/01/28 02:52:44;;;;;;;;;;;;;;;;;;5075890;28;19912;-85
2022/01/28 02:55:12;;;;;;;;;;;;;;;;;;5076116;28;19920;-85
2022/01/28 02:57:40;;;;;;;;;;;;;;;;;;5074789;28;19908;-85
2022/01/28 03:00:06;;;;;;;;;;;;;;;;;;5074744;28;20007;-85
2022/01/28 03:02:31;;;;;;;;;;;;;;;;;;5074749;28;19952;-85
2022/01/28 03:07:27;;;;;;;;;;;;;;;;;;5075815;28;19908;-85
2022/01/28 03:11:18;;;;;;;;;;;;;;;;;;5074094;28;20011;-85
2022/01/28 03:13:02;;;;;;;;;;;;;;;;;;5075052;28;19908;-85
2022/01/28 03:15:27;;;;;;;;;;;;;;;;;;5075796;28;19913;-85
2022/01/28 03:18:08;;;;;;;;;;;;;;;;;;5073178;28;19935;-86
2022/01/28 03:20:41;;;;;;;;;;;;;;;;;;5074341;28;20019;-86
2022/01/28 03:23:07;;;;;;;;;;;;;;;;;;5074340;28;19914;-85
2022/01/28 03:25:34;;;;;;;;;;;;;;;;;;5074354;28;19916;-85
2022/01/28 03:28:00;;;;;;;;;;;;;;;;;;5074295;28;19908;-85
2022/01/28 03:30:25;;;;;;;;;;;;;;;;;;5074002;28;20626;-85
2022/01/28 03:32:50;;;;;;;;;;;;;;;;;;5074082;28;19909;-85
2022/01/28 03:35:17;;;;;;;;;;;;;;;;;;5094650;28;19916;-85
2022/01/28 03:37:42;;;;;;;;;;;;;;;;;;5076563;28;20565;-85
2022/01/28 03:40:08;;;;;;;;;;;;;;;;;;5077121;28;20356;-86
2022/01/28 03:42:33;;;;;;;;;;;;;;;;;;5077354;28;20008;-85
2022/01/28 03:44:58;;;;;;;;;;;;;;;;;;5095328;28;19999;-85
2022/01/28 03:47:23;;;;;;;;;;;;;;;;;;5077321;28;19914;-86
2022/01/28 03:49:48;;;;;;;;;;;;;;;;;;5077054;28;19915;-85
2022/01/28 03:52:13;;;;;;;;;;;;;;;;;;5094975;28;19926;-85
2022/01/28 03:54:38;;;;;;;;;;;;;;;;;;5094949;28;20015;-85
2022/01/28 03:57:04;;;;;;;;;;;;;;;;;;5094225;28;20332;-86
2022/01/28 03:59:29;;;;;;;;;;;;;;;;;;5094077;28;19912;-85
2022/01/28 04:01:55;;;;;;;;;;;;;;;;;;5095025;28;19908;-85
2022/01/28 04:12:28;;;;;;;;;;;;;;;;;;5095000;28;19914;-86
2022/01/28 04:17:45;;;;;;;;;;;;;;;;;;5063652;28;19908;-85
2022/01/28 04:20:10;;;;;;;;;;;;;;;;;;5094990;28;19916;-85
2022/01/28 04:22:35;;;;;;;;;;;;;;;;;;5076685;28;19994;-85
2022/01/28 04:25:00;;;;;;;;;;;;;;;;;;5094701;28;20002;-85
2022/01/28 04:27:25;;;;;;;;;;;;;;;;;;5076265;28;19916;-85
2022/01/28 04:29:51;;;;;;;;;;;;;;;;;;5091569;28;20359;-85
2022/01/28 04:32:18;;;;;;;;;;;;;;;;;;5089598;28;19913;-85
2022/01/28 04:34:43;;;;;;;;;;;;;;;;;;5056025;28;19916;-85
2022/01/28 04:37:32;;;;;;;;;;;;;;;;;;5055960;28;19916;-85
2022/01/28 04:45:51;;;;;;;;;;;;;;;;;;5073866;28;20280;-85
2022/01/28 04:48:16;;;;;;;;;;;;;;;;;;5065911;28;19916;-86
2022/01/28 05:23:21;;;;;;;;;;;;;;;;;;5101652;28;19919;-86
2022/01/28 05:28:12;;;;;;;;;;;;;;;;;;5093402;28;19912;-86
2022/01/28 05:30:37;;;;;;;;;;;;;;;;;;5093261;28;19908;-85
2022/01/28 05:33:02;;;;;;;;;;;;;;;;;;5075008;28;20253;-85
2022/01/28 05:35:27;;;;;;;;;;;;;;;;;;5074892;28;19912;-85
2022/01/28 05:37:52;;;;;;;;;;;;;;;;;;5093320;28;19908;-86
2022/01/28 05:40:17;;;;;;;;;;;;;;;;;;5075264;28;19916;-86
2022/01/28 05:42:43;;;;;;;;;;;;;;;;;;5075432;28;20361;-86
2022/01/28 05:45:08;;;;;;;;;;;;;;;;;;5075227;28;19908;-85
2022/01/28 05:47:35;;;;;;;;;;;;;;;;;;5074661;28;19918;-86
2022/01/28 05:50:01;;;;;;;;;;;;;;;;;;5075337;28;19908;-86
2022/01/28 05:52:26;;;;;;;;;;;;;;;;;;5075161;28;19919;-86
2022/01/28 05:54:51;;;;;;;;;;;;;;;;;;5075336;28;20018;-86
2022/01/28 05:57:16;;;;;;;;;;;;;;;;;;5075438;28;19912;-85
2022/01/28 05:59:41;;;;;;;;;;;;;;;;;;5074932;28;19908;-85
2022/01/28 06:02:06;;;;;;;;;;;;;;;;;;5079493;28;20379;-84
2022/01/28 06:04:31;;;;;;;;;;;;;;;;;;5088586;28;19954;-85
2022/01/28 06:06:56;;;;;;;;;;;;;;;;;;5088509;28;19962;-85
2022/01/28 06:09:21;;;;;;;;;;;;;;;;;;5088711;28;19909;-85
2022/01/28 06:11:47;;;;;;;;;;;;;;;;;;5088631;28;19908;-85
2022/01/28 06:14:12;;;;;;;;;;;;;;;;;;5088283;28;19931;-85
2022/01/28 06:16:37;;;;;;;;;;;;;;;;;;5054787;28;19908;-85
2022/01/28 06:19:02;;;;;;;;;;;;;;;;;;5055342;28;19912;-85
2022/01/28 06:21:27;;;;;;;;;;;;;;;;;;5057506;28;19912;-86
2022/01/28 06:23:52;;;;;;;;;;;;;;;;;;5058680;28;19908;-86
2022/01/28 06:26:17;;;;;;;;;;;;;;;;;;5058572;28;19909;-86
2022/01/28 06:28:42;;;;;;;;;;;;;;;;;;5058604;28;19952;-85
2022/01/28 06:31:07;;;;;;;;;;;;;;;;;;5076327;28;20395;-86
2022/01/28 06:33:33;;;;;;;;;;;;;;;;;;5090047;28;20637;-86
2022/01/28 06:35:58;;;;;;;;;;;;;;;;;;5078409;28;19908;-85
2022/01/28 06:38:23;;;;;;;;;;;;;;;;;;5078527;28;19905;-85
2022/01/28 06:40:51;;;;;;;;;;;;;;;;;;5078401;28;19935;-85
2022/01/28 06:43:16;;;;;;;;;;;;;;;;;;5096461;28;20370;-85
2022/01/28 06:45:43;;;;;;;;;;;;;;;;;;5078153;28;19908;-85
2022/01/28 06:48:10;;;;;;;;;;;;;;;;;;5088563;28;19912;-85
2022/01/28 06:50:35;;;;;;;;;;;;;;;;;;5079139;28;19913;-85
2022/01/28 06:53:00;;;;;;;;;;;;;;;;;;5091770;28;19918;-85
2022/01/28 06:55:25;;;;;;;;;;;;;;;;;;5092095;28;20745;-84
2022/01/28 06:57:52;;;;;;;;;;;;;;;;;;5076596;28;19920;-85
2022/01/28 07:00:18;;;;;;;;;;;;;;;;;;5077591;28;19952;-85
2022/01/28 07:02:44;;;;;;;;;;;;;;;;;;5077740;28;19975;-85
2022/01/28 07:05:09;;;;;;;;;;;;;;;;;;5095663;28;19920;-85
2022/01/28 07:07:36;;;;;;;;;;;;;;;;;;5077596;28;19908;-85
2022/01/28 07:10:01;;;;;;;;;;;;;;;;;;5084925;28;20390;-85
2022/01/28 07:12:26;;;;;;;;;;;;;;;;;;5079004;28;19913;-85
2022/01/28 07:14:53;;;;;;;;;;;;;;;;;;5095440;28;19999;-85
2022/01/28 07:17:18;;;;;;;;;;;;;;;;;;5077708;28;19916;-85
2022/01/28 07:19:43;;;;;;;;;;;;;;;;;;5076865;28;19912;-85
2022/01/28 07:22:08;;;;;;;;;;;;;;;;;;5076871;28;19916;-85
2022/01/28 07:24:34;;;;;;;;;;;;;;;;;;5074308;28;20275;-85
2022/01/28 07:26:59;;;;;;;;;;;;;;;;;;5074156;28;19916;-85
2022/01/28 07:29:28;;;;;;;;;;;;;;;;;;5095831;28;20322;-85
2022/01/28 07:31:53;;;;;;;;;;;;;;;;;;5079813;28;19908;-85
2022/01/28 07:34:18;;;;;;;;;;;;;;;;;;5075947;28;20008;-85
2022/01/28 07:36:43;;;;;;;;;;;;;;;;;;5058211;28;20010;-84
2022/01/28 07:39:09;;;;;;;;;;;;;;;;;;5065504;28;19918;-85
2022/01/28 07:41:35;;;;;;;;;;;;;;;;;;5077331;28;19931;-85
2022/01/28 07:44:00;;;;;;;;;;;;;;;;;;5077242;28;19912;-84
2022/01/28 07:46:25;;;;;;;;;;;;;;;;;;5095365;28;19953;-85
2022/01/28 07:48:51;;;;;;;;;;;;;;;;;;5095238;28;19977;-85
2022/01/28 07:51:16;;;;;;;;;;;;;;;;;;5077224;28;20431;-84
2022/01/28 07:53:41;;;;;;;;;;;;;;;;;;5095458;28;20023;-85
2022/01/28 07:56:06;;;;;;;;;;;;;;;;;;5094897;28;19908;-85
2022/01/28 07:58:31;;;;;;;;;;;;;;;;;;5076796;28;19908;-85
2022/01/28 08:00:56;;;;;;;;;;;;;;;;;;5094029;28;19912;-85
2022/01/28 08:03:21;;;;;;;;;;;;;;;;;;5076808;28;19908;-85
2022/01/28 08:05:46;;;;;;;;;;;;;;;;;;5094797;28;19908;-85
2022/01/28 08:08:13;;;;;;;;;;;;;;;;;;5076027;28;20279;-85
2022/01/28 08:10:38;;;;;;;;;;;;;;;;;;5094594;28;19908;-84
2022/01/28 08:13:05;;;;;;;;;;;;;;;;;;5094759;28;19915;-85
2022/01/28 08:15:30;;;;;;;;;;;;;;;;;;5094812;28;19912;-85
2022/01/28 08:17:55;;;;;;;;;;;;;;;;;;5076859;28;19908;-85
2022/01/28 08:20:20;;;;;;;;;;;;;;;;;;5076594;28;20382;-84
2022/01/28 08:22:45;;;;;;;;;;;;;;;;;;5094879;28;19909;-84
2022/01/28 08:25:10;;;;;;;;;;;;;;;;;;5075937;28;19912;-84
2022/01/28 08:27:35;;;;;;;;;;;;;;;;;;5094565;28;20379;-85
2022/01/28 08:30:01;;;;;;;;;;;;;;;;;;5076411;28;19957;-84
2022/01/28 08:32:27;;;;;;;;;;;;;;;;;;5076307;28;19912;-84
2022/01/28 08:34:52;;;;;;;;;;;;;;;;;;5094240;28;20394;-85
2022/01/28 08:37:17;;;;;;;;;;;;;;;;;;5076181;28;19908;-84
2022/01/28 08:39:43;;;;;;;;;;;;;;;;;;5076057;28;19959;-85
2022/01/28 08:42:08;;;;;;;;;;;;;;;;;;5076119;28;19955;-85
2022/01/28 08:44:33;;;;;;;;;;;;;;;;;;5075246;28;19920;-85
2022/01/28 08:46:58;;;;;;;;;;;;;;;;;;5094199;28;19908;-84
2022/01/28 08:49:23;;;;;;;;;;;;;;;;;;5076235;28;19920;-85
2022/01/28 08:51:48;;;;;;;;;;;;;;;;;;5075713;28;19962;-84
2022/01/28 08:54:13;;;;;;;;;;;;;;;;;;5069726;28;19916;-85
2022/01/28 08:56:38;;;;;;;;;;;;;;;;;;5077926;28;19987;-85
2022/01/28 08:59:04;;;;;;;;;;;;;;;;;;5055687;28;19915;-85
2022/01/28 09:01:30;;;;;;;;;;;;;;;;;;5089547;28;19920;-85
2022/01/28 09:03:55;;;;;;;;;;;;;;;;;;5074980;28;19951;-85
2022/01/28 09:06:20;;;;;;;;;;;;;;;;;;5075735;28;19908;-85
2022/01/28 09:08:47;;;;;;;;;;;;;;;;;;5075743;28;19908;-85
2022/01/28 09:14:03;;;;;;;;;;;;;;;;;;5062194;28;19912;-84
2022/01/28 09:16:28;;;;;;;;;;;;;;;;;;5075704;28;19942;-85
2022/01/28 09:18:53;;;;;;;;;;;;;;;;;;5075510;28;19908;-85
2022/01/28 09:21:19;;;;;;;;;;;;;;;;;;5075581;28;20321;-85
2022/01/28 09:23:46;;;;;;;;;;;;;;;;;;5071170;28;19958;-85
2022/01/28 09:26:11;;;;;;;;;;;;;;;;;;5088938;28;20372;-85
2022/01/28 09:28:36;;;;;;;;;;;;;;;;;;5088919;28;19927;-85
2022/01/28 09:31:01;;;;;;;;;;;;;;;;;;5089127;28;19916;-85
2022/01/28 09:33:27;;;;;;;;;;;;;;;;;;5088666;28;19916;-85
2022/01/28 09:35:54;;;;;;;;;;;;;;;;;;5073481;28;19915;-85
2022/01/28 09:38:19;;;;;;;;;;;;;;;;;;5088884;28;19913;-85
2022/01/28 09:40:44;;;;;;;;;;;;;;;;;;5073368;28;20264;-85
2022/01/28 09:43:09;;;;;;;;;;;;;;;;;;5089047;28;19916;-85
2022/01/28 09:45:34;;;;;;;;;;;;;;;;;;5088829;28;19912;-85
2022/01/28 09:48:00;;;;;;;;;;;;;;;;;;5072816;28;19916;-85
2022/01/28 09:50:25;;;;;;;;;;;;;;;;;;5073165;28;20695;-85
2022/01/28 09:52:51;;;;;;;;;;;;;;;;;;5088863;28;19909;-85
2022/01/28 09:55:16;;;;;;;;;;;;;;;;;;5073955;28;19913;-84
2022/01/28 09:57:41;;;;;;;;;;;;;;;;;;5092512;28;20373;-84
2022/01/28 10:00:06;;;;;;;;;;;;;;;;;;5092751;28;20314;-85
2022/01/28 10:02:31;;;;;;;;;;;;;;;;;;5092900;28;20371;-85
2022/01/28 10:04:56;;;;;;;;;;;;;;;;;;5094052;28;20002;-85
2022/01/28 10:07:25;;;;;;;;;;;;;;;;;;5079146;28;19915;-85
2022/01/28 10:09:50;;;;;;;;;;;;;;;;;;5096805;28;19916;-85
2022/01/28 10:12:18;;;;;;;;;;;;;;;;;;5079081;28;19908;-85
2022/01/28 10:14:47;;;;;;;;;;;;;;;;;;5079038;28;20322;-85
2022/01/28 10:17:12;;;;;;;;;;;;;;;;;;5096980;28;20363;-85
2022/01/28 10:19:37;;;;;;;;;;;;;;;;;;5078787;28;19930;-84
2022/01/28 10:22:03;;;;;;;;;;;;;;;;;;5078501;28;19946;-85
2022/01/28 10:24:28;;;;;;;;;;;;;;;;;;5078773;28;19908;-85
2022/01/28 10:26:53;;;;;;;;;;;;;;;;;;5078791;28;19978;-85
2022/01/28 10:29:18;;;;;;;;;;;;;;;;;;5078663;28;19946;-85
2022/01/28 10:31:44;;;;;;;;;;;;;;;;;;5096406;28;19912;-84
2022/01/28 10:34:09;;;;;;;;;;;;;;;;;;5077702;28;19916;-85
2022/01/28 10:36:34;;;;;;;;;;;;;;;;;;5078433;28;19970;-85
2022/01/28 10:38:59;;;;;;;;;;;;;;;;;;5096577;28;20492;-85
2022/01/28 10:41:25;;;;;;;;;;;;;;;;;;5096545;28;19908;-84
2022/01/28 10:43:51;;;;;;;;;;;;;;;;;;5078480;28;19995;-85
2022/01/28 10:46:17;;;;;;;;;;;;;;;;;;5078310;28;19909;-85
2022/01/28 10:48:42;;;;;;;;;;;;;;;;;;5096423;28;19916;-85
2022/01/28 10:51:07;;;;;;;;;;;;;;;;;;5096621;28;19912;-85
2022/01/28 10:53:33;;;;;;;;;;;;;;;;;;5096474;28;20352;-85
2022/01/28 10:56:00;;;;;;;;;;;;;;;;;;5077624;28;19912;-85
2022/01/28 10:58:26;;;;;;;;;;;;;;;;;;5078474;28;20714;-85
2022/01/28 11:00:53;;;;;;;;;;;;;;;;;;5096291;28;19904;-85
2022/01/28 11:03:18;;;;;;;;;;;;;;;;;;5078067;28;19958;-85
2022/01/28 11:05:46;;;;;;;;;;;;;;;;;;5077720;28;19947;-85
2022/01/28 11:08:11;;;;;;;;;;;;;;;;;;5095813;28;19908;-85
2022/01/28 11:10:36;;;;;;;;;;;;;;;;;;5096075;28;19911;-85
2022/01/28 11:13:01;;;;;;;;;;;;;;;;;;5096083;28;20252;-85
2022/01/28 11:15:27;;;;;;;;;;;;;;;;;;5073812;28;19921;-85
2022/01/28 11:17:52;;;;;;;;;;;;;;;;;;5065859;28;19912;-85
2022/01/28 11:20:20;;;;;;;;;;;;;;;;;;5069835;28;19912;-85
2022/01/28 11:22:47;;;;;;;;;;;;;;;;;;5072727;28;19965;-85
2022/01/28 11:25:12;;;;;;;;;;;;;;;;;;5077563;28;19913;-85
2022/01/28 11:27:37;;;;;;;;;;;;;;;;;;5077566;28;19908;-86
2022/01/28 11:30:02;;;;;;;;;;;;;;;;;;5078011;28;19912;-85
2022/01/28 11:32:27;;;;;;;;;;;;;;;;;;5095603;28;19920;-86
2022/01/28 11:34:52;;;;;;;;;;;;;;;;;;5095176;28;20363;-86
2022/01/28 11:37:18;;;;;;;;;;;;;;;;;;5077474;28;19915;-85
2022/01/28 11:39:46;;;;;;;;;;;;;;;;;;5077506;28;19913;-86
2022/01/28 11:42:11;;;;;;;;;;;;;;;;;;5095554;28;19909;-86
2022/01/28 11:44:36;;;;;;;;;;;;;;;;;;5074684;28;19919;-86
2022/01/28 11:47:01;;;;;;;;;;;;;;;;;;5071172;28;19913;-86
2022/01/28 11:49:26;;;;;;;;;;;;;;;;;;5089594;28;19923;-86
2022/01/28 11:51:51;;;;;;;;;;;;;;;;;;5079032;28;20367;-85
2022/01/28 11:54:17;;;;;;;;;;;;;;;;;;5097241;28;19912;-85
2022/01/28 11:56:42;;;;;;;;;;;;;;;;;;5082277;28;20342;-86
2022/01/28 11:59:10;;;;;;;;;;;;;;;;;;5078652;28;19958;-86
2022/01/28 12:01:35;;;;;;;;;;;;;;;;;;5096791;28;19915;-85
2022/01/28 12:04:00;;;;;;;;;;;;;;;;;;5085563;28;19908;-86
2022/01/28 12:06:25;;;;;;;;;;;;;;;;;;5064195;28;19913;-85
2022/01/28 12:08:50;;;;;;;;;;;;;;;;;;5094561;28;19916;-85
2022/01/28 12:11:17;;;;;;;;;;;;;;;;;;5071749;28;19943;-87
2022/01/28 12:13:42;;;;;;;;;;;;;;;;;;5096165;28;19916;-85
2022/01/28 12:18:33;;;;;;;;;;;;;;;;;;5113896;28;20268;-85
2022/01/28 12:20:58;;;;;;;;;;;;;;;;;;5115219;28;19911;-86
2022/01/28 12:23:23;;;;;;;;;;;;;;;;;;5087777;28;19912;-85
2022/01/28 12:25:48;;;;;;;;;;;;;;;;;;5096742;28;19961;-85
2022/01/28 12:28:14;;;;;;;;;;;;;;;;;;5091659;28;20462;-85
2022/01/28 12:30:39;;;;;;;;;;;;;;;;;;5092040;28;19920;-85
2022/01/28 12:33:04;;;;;;;;;;;;;;;;;;5081899;28;19914;-85
2022/01/28 12:35:29;;;;;;;;;;;;;;;;;;5095068;28;20021;-85
2022/01/28 12:38:00;;;;;;;;;;;;;;;;;;5111174;28;20390;-86
2022/01/28 12:40:25;;;;;;;;;;;;;;;;;;5078178;28;19912;-85
2022/01/28 12:42:50;;;;;;;;;;;;;;;;;;5076016;28;19919;-86
2022/01/28 12:45:15;;;;;;;;;;;;;;;;;;5075614;28;20001;-86
2022/01/28 12:47:40;;;;;;;;;;;;;;;;;;5076032;28;20053;-86
2022/01/28 12:50:05;;;;;;;;;;;;;;;;;;5094377;28;20379;-86
2022/01/28 12:52:31;;;;;;;;;;;;;;;;;;5075945;28;19908;-86
2022/01/28 12:54:56;;;;;;;;;;;;;;;;;;5075427;28;19927;-87
2022/01/28 12:57:21;;;;;;;;;;;;;;;;;;5076022;28;19915;-86
2022/01/28 12:59:46;;;;;;;;;;;;;;;;;;5075930;28;20352;-86
2022/01/28 13:02:11;;;;;;;;;;;;;;;;;;5075676;28;19916;-86
2022/01/28 13:04:50;;;;;;;;;;;;;;;;;;5075620;28;20353;-86
2022/01/28 13:10:06;;;;;;;;;;;;;;;;;;5062425;28;19994;-86
2022/01/28 13:12:32;;;;;;;;;;;;;;;;;;5076056;28;19947;-86
2022/01/28 13:14:57;;;;;;;;;;;;;;;;;;5074930;28;20002;-86
2022/01/28 13:17:22;;;;;;;;;;;;;;;;;;5074861;28;19912;-86
2022/01/28 13:19:47;;;;;;;;;;;;;;;;;;5075503;28;19908;-86
2022/01/28 13:22:12;;;;;;;;;;;;;;;;;;5093669;28;19931;-86
2022/01/28 13:24:37;;;;;;;;;;;;;;;;;;5094039;28;19900;-86
2022/01/28 13:27:02;;;;;;;;;;;;;;;;;;5093329;28;19915;-86
2022/01/28 13:29:27;;;;;;;;;;;;;;;;;;5075499;28;19908;-86
2022/01/28 13:31:53;;;;;;;;;;;;;;;;;;5093632;28;19909;-86
2022/01/28 13:34:18;;;;;;;;;;;;;;;;;;5075061;28;20014;-86
2022/01/28 13:36:43;;;;;;;;;;;;;;;;;;5075319;28;19938;-86
2022/01/28 13:39:08;;;;;;;;;;;;;;;;;;5075373;28;20410;-86
2022/01/28 13:41:36;;;;;;;;;;;;;;;;;;5075289;28;19935;-86
2022/01/28 13:44:01;;;;;;;;;;;;;;;;;;5093623;28;20279;-86
2022/01/28 13:46:27;;;;;;;;;;;;;;;;;;5075308;28;20268;-86
2022/01/28 13:48:52;;;;;;;;;;;;;;;;;;5075171;28;20383;-86
2022/01/28 13:51:19;;;;;;;;;;;;;;;;;;5093917;28;19916;-86
2022/01/28 13:54:15;;;;;;;;;;;;;;;;;;5075384;28;19912;-86
2022/01/28 13:56:29;;;;;;;;;;;;;;;;;;5085116;28;19919;-86
2022/01/28 13:58:54;;;;;;;;;;;;;;;;;;5088674;28;19913;-86
2022/01/28 14:01:19;;;;;;;;;;;;;;;;;;5055092;28;20280;-86
2022/01/28 14:03:44;;;;;;;;;;;;;;;;;;5055242;28;19913;-86
2022/01/28 14:06:10;;;;;;;;;;;;;;;;;;5055052;28;19908;-86
2022/01/28 14:08:35;;;;;;;;;;;;;;;;;;5073022;28;19908;-86
2022/01/28 14:11:00;;;;;;;;;;;;;;;;;;5055086;28;19908;-85
2022/01/28 14:13:28;;;;;;;;;;;;;;;;;;5072858;28;20569;-86
2022/01/28 14:16:11;;;;;;;;;;;;;;;;;;5072806;28;20284;-85
2022/01/28 14:18:36;;;;;;;;;;;;;;;;;;5073059;28;19958;-86
2022/01/28 14:21:01;;;;;;;;;;;;;;;;;;5072962;28;19944;-86
2022/01/28 14:23:27;;;;;;;;;;;;;;;;;;5078483;28;19947;-86
2022/01/28 14:25:52;;;;;;;;;;;;;;;;;;5075074;28;20003;-86
2022/01/28 14:30:54;;;;;;;;;;;;;;;;;;5093453;28;19908;-86
2022/01/28 14:33:19;;;;;;;;;;;;;;;;;;5075027;28;19965;-86
2022/01/28 14:35:44;;;;;;;;;;;;;;;;;;5075107;28;20007;-86
2022/01/28 14:38:11;;;;;;;;;;;;;;;;;;5092963;28;19911;-86
2022/01/28 14:40:36;;;;;;;;;;;;;;;;;;5074889;28;19912;-86
2022/01/28 14:43:02;;;;;;;;;;;;;;;;;;5096077;28;20312;-86
2022/01/28 14:45:27;;;;;;;;;;;;;;;;;;5078590;28;19916;-85
2022/01/28 14:47:52;;;;;;;;;;;;;;;;;;5096610;28;19999;-86
2022/01/28 14:50:18;;;;;;;;;;;;;;;;;;5069442;28;19912;-86
2022/01/28 14:52:43;;;;;;;;;;;;;;;;;;5076196;28;20360;-86
2022/01/28 14:55:08;;;;;;;;;;;;;;;;;;5076021;28;19944;-86
2022/01/28 14:57:33;;;;;;;;;;;;;;;;;;5091840;28;19908;-86
2022/01/28 14:59:58;;;;;;;;;;;;;;;;;;5091346;28;19954;-86
2022/01/28 15:02:24;;;;;;;;;;;;;;;;;;5091578;28;19977;-86
2022/01/28 15:04:49;;;;;;;;;;;;;;;;;;5091600;28;20374;-86
2022/01/28 15:07:16;;;;;;;;;;;;;;;;;;5075654;28;20011;-86
2022/01/28 15:09:42;;;;;;;;;;;;;;;;;;5075988;28;19908;-86
2022/01/28 15:12:07;;;;;;;;;;;;;;;;;;5057843;28;19917;-86
2022/01/28 15:14:32;;;;;;;;;;;;;;;;;;5063023;28;19923;-86
2022/01/28 15:16:57;;;;;;;;;;;;;;;;;;5077356;28;19919;-86
2022/01/28 15:19:22;;;;;;;;;;;;;;;;;;5095916;28;19908;-86
2022/01/28 15:21:51;;;;;;;;;;;;;;;;;;5077902;28;20252;-86
2022/01/28 15:24:16;;;;;;;;;;;;;;;;;;5096042;28;20375;-86
2022/01/28 15:26:41;;;;;;;;;;;;;;;;;;5077839;28;19914;-86
2022/01/28 15:29:11;;;;;;;;;;;;;;;;;;5077685;28;19912;-86
2022/01/28 15:37:04;;;;;;;;;;;;;;;;;;5095659;28;19915;-86
2022/01/28 15:39:35;;;;;;;;;;;;;;;;;;5077743;28;19912;-86
2022/01/28 15:42:00;;;;;;;;;;;;;;;;;;5076946;28;19912;-85
2022/01/28 15:44:25;;;;;;;;;;;;;;;;;;5077414;28;19915;-85
2022/01/28 15:46:53;;;;;;;;;;;;;;;;;;5095421;28;19915;-86
2022/01/28 15:49:18;;;;;;;;;;;;;;;;;;5077248;28;19909;-86
2022/01/28 15:51:43;;;;;;;;;;;;;;;;;;5076999;28;19915;-86
2022/01/28 15:54:10;;;;;;;;;;;;;;;;;;5077146;28;19919;-85
2022/01/28 15:56:36;;;;;;;;;;;;;;;;;;5076962;28;19916;-86
2022/01/28 15:59:01;;;;;;;;;;;;;;;;;;5076934;28;19908;-86
2022/01/28 16:01:28;;;;;;;;;;;;;;;;;;5095082;28;19908;-85
2022/01/28 16:03:53;;;;;;;;;;;;;;;;;;5077039;28;19908;-86
2022/01/28 16:06:18;;;;;;;;;;;;;;;;;;5076874;28;19916;-86
2022/01/28 16:08:43;;;;;;;;;;;;;;;;;;5076765;28;19909;-85
2022/01/28 16:18:33;;;;;;;;;;;;;;;;;;5095239;28;19908;-85
2022/01/28 16:20:58;;;;;;;;;;;;;;;;;;5076346;28;19912;-86
2022/01/28 16:23:25;;;;;;;;;;;;;;;;;;5076551;28;19915;-85
2022/01/28 16:25:50;;;;;;;;;;;;;;;;;;5093732;28;19923;-85
2022/01/28 16:28:15;;;;;;;;;;;;;;;;;;5062129;28;19916;-85
2022/01/28 16:30:40;;;;;;;;;;;;;;;;;;5095496;28;19915;-85
2022/01/28 16:33:05;;;;;;;;;;;;;;;;;;5073984;28;19923;-85
2022/01/28 16:35:30;;;;;;;;;;;;;;;;;;5081090;28;20282;-86
2022/01/28 16:37:56;;;;;;;;;;;;;;;;;;5109060;28;19956;-86
2022/01/28 16:40:21;;;;;;;;;;;;;;;;;;5071282;28;20353;-86
2022/01/28 16:43:05;;;;;;;;;;;;;;;;;;5089437;28;20024;-86
2022/01/28 16:45:30;;;;;;;;;;;;;;;;;;5096709;28;19934;-87
2022/01/28 16:47:55;;;;;;;;;;;;;;;;;;5096450;28;19984;-86
2022/01/28 16:50:20;;;;;;;;;;;;;;;;;;5079833;28;19961;-86
2022/01/28 16:52:45;;;;;;;;;;;;;;;;;;5091057;28;20399;-86
2022/01/28 16:55:17;;;;;;;;;;;;;;;;;;5096617;28;19965;-86
2022/01/28 16:57:42;;;;;;;;;;;;;;;;;;5081893;28;20025;-86
2022/01/28 17:00:08;;;;;;;;;;;;;;;;;;5095991;28;20385;-86
2022/01/28 17:02:33;;;;;;;;;;;;;;;;;;5092770;28;19965;-86
2022/01/28 17:04:58;;;;;;;;;;;;;;;;;;5095597;28;19908;-86
2022/01/28 17:07:24;;;;;;;;;;;;;;;;;;5090026;28;19919;-86
2022/01/28 17:09:52;;;;;;;;;;;;;;;;;;5072586;28;19966;-86
2022/01/28 17:14:42;;;;;;;;;;;;;;;;;;5114027;28;19912;-86
2022/01/28 17:17:07;;;;;;;;;;;;;;;;;;5089944;28;19920;-86
2022/01/28 17:19:32;;;;;;;;;;;;;;;;;;5055192;28;19943;-86
2022/01/28 17:21:57;;;;;;;;;;;;;;;;;;5058243;28;20375;-86
2022/01/28 17:24:23;;;;;;;;;;;;;;;;;;5075747;28;19912;-86
2022/01/28 17:26:48;;;;;;;;;;;;;;;;;;5095372;28;19916;-86
2022/01/28 17:29:13;;;;;;;;;;;;;;;;;;5072089;28;19920;-86
2022/01/28 17:31:38;;;;;;;;;;;;;;;;;;5055372;28;20312;-86
2022/01/28 17:34:03;;;;;;;;;;;;;;;;;;5074024;28;19981;-86
2022/01/28 17:36:28;;;;;;;;;;;;;;;;;;5075711;28;20003;-88
2022/01/28 17:38:53;;;;;;;;;;;;;;;;;;5075654;28;19908;-87
2022/01/28 17:41:19;;;;;;;;;;;;;;;;;;5092236;28;19947;-87
2022/01/28 17:43:44;;;;;;;;;;;;;;;;;;5065488;28;20462;-87
2022/01/28 17:46:09;;;;;;;;;;;;;;;;;;5078532;28;19956;-87
2022/01/28 17:48:34;;;;;;;;;;;;;;;;;;5095523;28;20371;-87
2022/01/28 17:50:59;;;;;;;;;;;;;;;;;;5081812;28;19912;-86
2022/01/28 17:53:27;;;;;;;;;;;;;;;;;;5098179;28;19916;-89
2022/01/28 17:55:52;;;;;;;;;;;;;;;;;;5097517;28;20011;-87
2022/01/28 17:58:17;;;;;;;;;;;;;;;;;;5083900;28;19951;-87
2022/01/28 18:00:42;;;;;;;;;;;;;;;;;;5088053;28;20006;-86
2022/01/28 18:03:07;;;;;;;;;;;;;;;;;;5076627;28;19962;-86
2022/01/28 18:05:33;;;;;;;;;;;;;;;;;;5057058;28;19908;-87
2022/01/28 18:07:58;;;;;;;;;;;;;;;;;;5078039;28;20352;-87
2022/01/28 18:10:24;;;;;;;;;;;;;;;;;;5074895;28;19997;-88
2022/01/28 18:12:50;;;;;;;;;;;;;;;;;;5093720;28;20050;-89
2022/01/28 18:15:15;;;;;;;;;;;;;;;;;;5078289;28;19912;-89
2022/01/28 18:17:40;;;;;;;;;;;;;;;;;;5074843;28;19915;-88
2022/01/28 18:20:05;;;;;;;;;;;;;;;;;;5097043;28;19947;-88
2022/01/28 18:22:30;;;;;;;;;;;;;;;;;;5079503;28;19916;-90
2022/01/28 18:24:55;;;;;;;;;;;;;;;;;;5079077;28;19934;-88
2022/01/28 18:27:20;;;;;;;;;;;;;;;;;;5073018;28;19917;-88
2022/01/28 18:29:45;;;;;;;;;;;;;;;;;;5110289;28;19912;-89
2022/01/28 18:32:10;;;;;;;;;;;;;;;;;;5078903;28;19912;-89
2022/01/28 18:34:36;;;;;;;;;;;;;;;;;;5101540;28;19920;-88